Time;durP1;ratioP1;P1;durP2;ratioP2;P2;SDS_P1;SDS_P2;PMS_P1;PMS_P2;Temp;Humidity;BMP_temperature;BMP_pressure;BME280_temperature;BME280_humidity;BME280_pressure;Samples;Min_cycle;Max_cycle;Signal;HPM_P1;HPM_P2
2022/05/07 00:01:43;;;;;;;9.43;7.55;;;;;;;16.05;67.21;102184.47;5073566;28;20060;-83
2022/05/07 00:04:09;;;;;;;9.30;7.22;;;;;;;15.90;67.16;102160.84;5072545;28;20036;-83
2022/05/07 00:06:34;;;;;;;10.50;8.18;;;;;;;16.14;66.88;102181.44;5072283;28;20024;-83
2022/05/07 00:09:00;;;;;;;8.13;7.15;;;;;;;16.06;67.30;102176.66;5073395;28;20126;-83
2022/05/07 00:11:25;;;;;;;8.40;7.03;;;;;;;15.92;67.28;102151.28;5072553;28;20098;-83
2022/05/07 00:13:51;;;;;;;9.65;7.32;;;;;;;16.05;66.88;102174.84;5071465;28;20097;-83
2022/05/07 00:19:01;;;;;;;11.05;7.43;;;;;;;16.01;67.19;102185.13;5072669;28;20071;-83
2022/05/07 00:21:27;;;;;;;8.80;7.05;;;;;;;15.86;67.05;102146.59;5054685;28;20056;-83
2022/05/07 00:23:53;;;;;;;9.57;7.22;;;;;;;16.06;67.19;102181.00;5073054;28;20047;-83
2022/05/07 00:26:18;;;;;;;10.18;7.22;;;;;;;16.08;67.15;102187.25;5071557;28;20516;-82
2022/05/07 00:28:47;;;;;;;10.63;7.63;;;;;;;15.94;67.27;102164.53;5071252;28;20036;-83
2022/05/07 00:31:12;;;;;;;12.63;7.28;;;;;;;15.89;67.00;102156.38;5072793;28;20078;-83
2022/05/07 00:33:38;;;;;;;10.38;7.68;;;;;;;16.01;67.02;102174.59;5073049;28;20506;-83
2022/05/07 00:36:04;;;;;;;10.82;7.28;;;;;;;15.91;67.27;102164.38;5073304;28;20615;-83
2022/05/07 00:38:30;;;;;;;9.45;7.53;;;;;;;15.91;67.54;102159.09;5071325;28;20032;-82
2022/05/07 00:40:55;;;;;;;10.52;7.80;;;;;;;15.89;67.32;102143.19;5071205;28;20515;-83
2022/05/07 00:43:21;;;;;;;10.88;8.02;;;;;;;15.79;67.01;102132.97;5071971;28;20117;-83
2022/05/07 00:45:47;;;;;;;8.95;7.22;;;;;;;15.92;67.07;102153.94;5072522;28;20027;-82
2022/05/07 00:48:14;;;;;;;11.95;7.57;;;;;;;15.96;66.98;102170.78;5072580;28;20542;-82
2022/05/07 00:53:25;;;;;;;9.70;7.30;;;;;;;15.97;67.12;102156.81;5072456;28;20504;-82
2022/05/07 00:55:51;;;;;;;10.93;7.93;;;;;;;16.01;67.12;102167.59;5070701;28;20103;-83
2022/05/07 00:58:18;;;;;;;10.00;7.45;;;;;;;15.95;67.14;102161.97;5072608;28;20029;-82
2022/05/07 01:00:43;;;;;;;10.73;7.20;;;;;;;15.93;67.06;102165.38;5072521;28;20036;-83
2022/05/07 01:03:09;;;;;;;10.48;8.02;;;;;;;15.98;67.13;102158.59;5072750;28;20032;-82
2022/05/07 01:05:35;;;;;;;8.63;7.13;;;;;;;15.96;67.06;102160.25;5071154;28;20406;-83
2022/05/07 01:08:01;;;;;;;9.82;7.82;;;;;;;16.01;66.97;102164.06;5071503;28;20024;-83
2022/05/07 01:10:27;;;;;;;10.52;7.57;;;;;;;15.95;66.77;102167.25;5072418;28;20547;-82
2022/05/07 01:12:56;;;;;;;9.27;7.40;;;;;;;15.91;66.79;102162.63;5071262;28;20111;-82
2022/05/07 01:15:22;;;;;;;9.40;7.25;;;;;;;15.90;67.22;102154.66;5071215;28;20017;-82
2022/05/07 01:17:47;;;;;;;8.70;7.07;;;;;;;15.91;66.88;102160.00;5072433;28;20738;-83
2022/05/07 01:20:14;;;;;;;9.45;7.28;;;;;;;15.94;66.90;102169.78;5072279;28;20049;-83
2022/05/07 01:22:41;;;;;;;9.27;7.45;;;;;;;15.95;66.93;102167.25;5072185;28;20040;-83
2022/05/07 01:25:07;;;;;;;9.77;7.28;;;;;;;15.86;66.59;102156.22;5071094;28;20035;-83
2022/05/07 01:27:33;;;;;;;;;;;;;;;15.91;66.87;102162.63;5072615;28;20024;-83
2022/05/07 01:29:58;;;;;;;9.73;7.28;;;;;;;15.91;66.49;102161.75;5088041;28;19931;-83
2022/05/07 01:32:24;;;;;;;10.15;7.57;;;;;;;15.85;66.70;102163.22;5071032;28;20024;-82
2022/05/07 01:34:51;;;;;;;11.13;7.90;;;;;;;15.67;66.82;102118.28;5072078;28;20035;-83
2022/05/07 01:37:18;;;;;;;9.88;7.55;;;;;;;15.74;66.66;102148.53;5071695;28;20055;-82
2022/05/07 01:39:44;;;;;;;11.40;7.70;;;;;;;15.76;66.79;102146.91;5070099;28;20056;-82
2022/05/07 01:42:09;;;;;;;9.52;7.57;;;;;;;15.85;67.00;102163.22;5071667;28;20117;-82
2022/05/07 01:44:35;;;;;;;10.40;7.55;;;;;;;15.87;66.81;102156.31;5070778;28;20036;-82
2022/05/07 01:49:47;;;;;;;10.15;7.00;;;;;;;15.76;66.78;102141.63;5054934;28;20036;-83
2022/05/07 01:52:13;;;;;;;9.70;7.53;;;;;;;15.81;66.34;102155.03;5064783;28;20024;-83
2022/05/07 01:54:39;;;;;;;;;;;;;;;15.85;66.84;102165.88;5070067;28;20037;-83
2022/05/07 01:57:05;;;;;;;10.27;7.43;;;;;;;15.83;66.33;102162.25;5071333;28;19912;-83
2022/05/07 01:59:31;;;;;;;9.98;7.75;;;;;;;15.76;66.54;102146.91;5070204;28;20025;-82
2022/05/07 02:01:56;;;;;;;10.80;7.28;;;;;;;15.77;66.62;102147.78;5071145;28;20508;-82
2022/05/07 02:04:22;;;;;;;9.90;7.68;;;;;;;15.78;66.76;102142.63;5071294;28;20036;-83
2022/05/07 02:06:49;;;;;;;8.23;6.53;;;;;;;15.84;66.80;102147.31;5070282;28;20021;-82
2022/05/07 02:09:14;;;;;;;10.13;7.20;;;;;;;15.78;66.75;102142.63;5071138;28;20119;-82
2022/05/07 02:11:40;;;;;;;9.77;7.32;;;;;;;15.66;66.84;102131.38;5071085;28;20557;-83
2022/05/07 02:14:06;;;;;;;10.60;7.68;;;;;;;15.80;66.77;102151.50;5071567;28;20032;-83
2022/05/07 02:16:31;;;;;;;12.18;7.53;;;;;;;15.77;66.58;102151.34;5071363;28;20031;-83
2022/05/07 02:18:57;;;;;;;11.85;7.57;;;;;;;15.68;66.49;102127.09;5069814;28;20032;-83
2022/05/07 02:21:23;;;;;;;12.30;7.18;;;;;;;15.70;66.69;102140.34;5070146;28;20032;-83
2022/05/07 02:23:48;;;;;;;9.40;7.45;;;;;;;15.57;66.37;102121.25;5071430;28;20063;-82
2022/05/07 02:26:14;;;;;;;12.20;8.18;;;;;;;15.72;66.43;102165.09;5070937;28;20055;-82
2022/05/07 02:28:40;;;;;;;9.07;7.15;;;;;;;15.65;66.61;102140.09;5070939;28;20078;-83
2022/05/07 02:31:06;;;;;;;9.25;7.13;;;;;;;15.75;66.30;102165.28;5070019;28;20029;-82
2022/05/07 02:33:31;;;;;;;11.90;7.60;;;;;;;15.74;66.65;102159.06;5069518;28;20028;-82
2022/05/07 02:35:57;;;;;;;9.52;7.35;;;;;;;15.75;66.09;102167.91;5069513;28;20032;-82
2022/05/07 02:38:23;;;;;;;11.45;7.80;;;;;;;15.62;66.71;102147.81;5070609;28;21862;-82
2022/05/07 02:43:32;;;;;;;10.18;7.00;;;;;;;15.76;66.50;102151.28;5069940;28;20178;-82
2022/05/07 02:45:58;;;;;;;8.95;7.18;;;;;;;15.76;66.50;102151.28;5070927;28;20074;-82
2022/05/07 02:48:25;;;;;;;8.23;6.78;;;;;;;15.75;66.47;102150.38;5070818;28;20476;-82
2022/05/07 02:50:50;;;;;;;12.35;7.20;;;;;;;15.59;66.53;102119.59;5070622;28;20027;-82
2022/05/07 02:53:16;;;;;;;9.90;7.53;;;;;;;15.68;66.52;102138.56;5073132;28;20107;-82
2022/05/07 02:55:41;;;;;;;9.05;6.75;;;;;;;15.72;66.38;102146.66;5075250;28;20124;-82
2022/05/07 02:58:08;;;;;;;10.48;7.60;;;;;;;15.73;66.22;102148.47;5074815;28;20060;-82
2022/05/07 03:00:34;;;;;;;8.95;7.20;;;;;;;15.68;66.23;102150.78;5073256;28;20111;-82
2022/05/07 03:03:00;;;;;;;11.75;7.03;;;;;;;15.65;66.23;102154.19;5072941;28;20116;-82
2022/05/07 03:05:25;;;;;;;9.77;7.65;;;;;;;15.64;65.98;102143.53;5074815;28;20021;-82
2022/05/07 03:07:53;;;;;;;9.93;7.35;;;;;;;15.44;66.30;102106.50;5074869;28;20037;-82
2022/05/07 03:10:18;;;;;;;9.30;7.40;;;;;;;15.56;66.21;102129.06;5074396;28;20036;-82
2022/05/07 03:12:44;;;;;;;10.50;7.60;;;;;;;15.58;66.32;102137.97;5074159;28;20040;-82
2022/05/07 03:15:10;;;;;;;9.05;7.15;;;;;;;15.59;66.25;102145.94;5074542;28;20067;-83
2022/05/07 03:17:36;;;;;;;9.85;7.05;;;;;;;15.57;66.22;102150.19;5074321;28;20036;-83
2022/05/07 03:20:06;;;;;;;9.73;7.10;;;;;;;15.57;66.31;102146.66;5073874;28;20028;-82
2022/05/07 03:22:31;;;;;;;12.57;7.25;;;;;;;15.46;66.41;102132.91;5074392;28;20033;-82
2022/05/07 03:24:57;;;;;;;9.35;6.60;;;;;;;15.60;66.26;102149.47;5073897;28;20157;-82
2022/05/07 03:27:22;;;;;;;8.40;6.93;;;;;;;15.61;66.18;102161.81;5074073;28;20500;-83
2022/05/07 03:29:48;;;;;;;8.27;6.90;;;;;;;15.18;66.06;102093.63;5072709;28;20502;-83
2022/05/07 03:32:14;;;;;;;10.50;7.07;;;;;;;15.60;65.98;102168.81;5072108;28;20039;-82
2022/05/07 03:34:39;;;;;;;10.50;7.25;;;;;;;15.59;66.30;102164.38;5074163;28;20037;-82
2022/05/07 03:37:06;;;;;;;8.27;6.68;;;;;;;15.57;66.26;102162.47;5073753;28;20037;-82
2022/05/07 03:39:32;;;;;;;10.98;7.07;;;;;;;15.47;65.88;102147.88;5074072;28;20472;-82
2022/05/07 03:41:58;;;;;;;8.18;6.80;;;;;;;15.53;65.78;102152.59;5073972;28;20028;-82
2022/05/07 03:44:23;;;;;;;8.05;6.80;;;;;;;15.56;66.17;102160.69;5074322;28;20035;-82
2022/05/07 03:46:49;;;;;;;9.98;6.53;;;;;;;15.42;66.12;102125.66;5073838;28;20591;-82
2022/05/07 03:49:15;;;;;;;8.77;7.18;;;;;;;15.45;66.11;102139.91;5073828;28;20509;-82
2022/05/07 03:54:25;;;;;;;8.95;6.95;;;;;;;15.47;66.14;102148.81;5065024;28;20511;-82
2022/05/07 03:56:51;;;;;;;9.90;7.45;;;;;;;15.36;66.21;102128.84;5073704;28;20032;-82
2022/05/07 03:59:16;;;;;;;10.43;6.93;;;;;;;15.47;66.07;102153.13;5073417;28;20448;-82
2022/05/07 04:01:42;;;;;;;9.30;6.82;;;;;;;15.46;65.89;102152.25;5073654;28;20417;-82
2022/05/07 04:04:08;;;;;;;8.45;6.80;;;;;;;15.43;66.10;102149.44;5072715;28;20493;-82
2022/05/07 04:06:33;;;;;;;8.93;6.97;;;;;;;15.44;66.27;102142.44;5073790;28;20032;-81
2022/05/07 04:08:59;;;;;;;9.40;6.95;;;;;;;15.44;66.11;102145.97;5073501;28;20412;-82
2022/05/07 04:11:24;;;;;;;10.23;7.22;;;;;;;15.42;65.92;102146.72;5073245;28;20071;-82
2022/05/07 04:13:51;;;;;;;9.90;7.15;;;;;;;15.39;66.05;102154.47;5073599;28;20050;-82
2022/05/07 04:16:17;;;;;;;8.65;7.03;;;;;;;15.33;66.31;102135.69;5073017;28;20107;-82
2022/05/07 04:18:42;;;;;;;9.02;6.88;;;;;;;15.31;66.28;102135.59;5073135;28;20024;-82
2022/05/07 04:21:08;;;;;;;9.25;7.22;;;;;;;15.31;66.24;102137.31;5073050;28;20505;-83
2022/05/07 04:23:34;;;;;;;9.45;7.40;;;;;;;15.34;66.23;102146.28;5073647;28;20031;-83
2022/05/07 04:25:59;;;;;;;10.45;7.50;;;;;;;15.27;66.20;102134.50;5072766;28;20029;-82
2022/05/07 04:28:25;;;;;;;12.35;7.43;;;;;;;15.23;66.11;102124.63;5072023;28;20024;-83
2022/05/07 04:30:51;;;;;;;10.27;6.93;;;;;;;15.39;66.19;102147.47;5072713;28;20037;-82
2022/05/07 04:33:17;;;;;;;10.38;7.35;;;;;;;15.25;66.23;102133.50;5072864;28;20040;-82
2022/05/07 04:35:43;;;;;;;9.15;7.07;;;;;;;15.22;66.16;102137.72;5072002;28;20028;-83
2022/05/07 04:38:08;;;;;;;8.55;6.82;;;;;;;15.11;66.16;102120.38;5072856;28;20090;-83
2022/05/07 04:40:34;;;;;;;8.85;7.28;;;;;;;15.27;66.22;102147.66;5072810;28;20035;-83
2022/05/07 04:43:00;;;;;;;10.10;6.93;;;;;;;15.21;66.25;102146.41;5072919;28;20032;-83
2022/05/07 04:45:27;;;;;;;10.23;7.53;;;;;;;15.22;66.46;102156.13;5072605;28;20041;-83
2022/05/07 04:47:53;;;;;;;8.18;6.78;;;;;;;15.27;66.42;102163.44;5067000;28;20097;-83
2022/05/07 04:50:19;;;;;;;9.82;7.60;;;;;;;15.26;66.29;102169.56;5065985;28;20032;-83
2022/05/07 04:52:45;;;;;;;9.50;7.07;;;;;;;15.12;66.36;102145.88;5071583;28;20064;-83
2022/05/07 04:55:10;;;;;;;;;;;;;;;15.29;66.35;102171.44;5071625;28;20103;-83
2022/05/07 04:57:36;;;;;;;10.48;7.20;;;;;;;15.16;66.36;102158.41;5068444;28;20007;-82
2022/05/07 05:00:06;;;;;;;10.35;7.25;;;;;;;15.24;66.38;102172.91;5072028;28;20079;-84
2022/05/07 05:02:32;;;;;;;10.32;7.28;;;;;;;15.24;66.54;102173.81;5071502;28;20111;-84
2022/05/07 05:04:57;;;;;;;8.93;6.53;;;;;;;15.25;66.32;102177.34;5072096;28;20525;-83
2022/05/07 05:07:23;;;;;;;10.65;7.75;;;;;;;15.21;66.38;102178.88;5071288;28;20037;-83
2022/05/07 05:09:48;;;;;;;9.88;6.93;;;;;;;15.15;66.74;102183.78;5072076;28;20043;-82
2022/05/07 05:12:14;;;;;;;10.02;7.80;;;;;;;15.20;66.54;102184.09;5072040;28;20048;-82
2022/05/07 05:17:24;;;;;;;23.88;8.82;;;;;;;15.18;65.10;102178.72;5071814;28;20570;-83
2022/05/07 05:19:51;;;;;;;19.10;9.80;;;;;;;15.01;61.20;102172.47;5072057;28;20044;-89
2022/05/07 05:22:17;;;;;;;20.90;9.95;;;;;;;14.98;61.12;102171.38;5071777;28;20481;-85
2022/05/07 05:24:43;;;;;;;19.38;10.13;;;;;;;14.88;61.09;102171.66;5071140;28;20059;-85
2022/05/07 05:27:08;;;;;;;18.63;10.48;;;;;;;14.64;61.00;102153.59;5069480;28;20021;-85
2022/05/07 05:29:34;;;;;;;16.60;10.07;;;;;;;14.84;61.15;102191.63;5071902;28;20505;-84
2022/05/07 05:31:59;;;;;;;14.65;10.45;;;;;;;14.78;61.72;102183.38;5072058;28;20017;-85
2022/05/07 05:34:26;;;;;;;18.67;11.13;;;;;;;14.82;61.48;102186.28;5076690;28;20467;-85
2022/05/07 05:36:52;;;;;;;106.28;15.25;;;;;;;14.89;60.82;102200.69;5087250;28;20042;-86
2022/05/07 05:39:18;;;;;;;34.15;13.50;;;;;;;14.80;61.90;102198.41;5075156;28;20561;-85
2022/05/07 05:41:44;;;;;;;38.78;12.52;;;;;;;14.69;62.25;102167.03;5071420;28;20024;-86
2022/05/07 05:44:10;;;;;;;27.60;12.27;;;;;;;14.76;61.80;102191.16;5083767;28;20078;-83
2022/05/07 05:46:36;;;;;;;22.95;11.40;;;;;;;14.84;63.06;102202.16;5070517;28;20035;-83
2022/05/07 05:49:02;;;;;;;26.40;11.23;;;;;;;14.87;63.86;102212.84;5071867;28;20028;-91
2022/05/07 05:51:27;;;;;;;28.10;10.77;;;;;;;14.86;63.43;102209.31;5071577;28;20032;-84
2022/05/07 05:53:53;;;;;;;27.67;10.85;;;;;;;14.88;63.95;102209.41;5083871;28;20413;-83
2022/05/07 05:56:19;;;;;;;26.80;11.52;;;;;;;14.93;64.07;102217.56;5070855;28;20421;-83
2022/05/07 05:58:44;;;;;;;25.30;11.13;;;;;;;14.92;64.03;102207.84;5080729;28;20106;-83
2022/05/07 06:01:11;;;;;;;23.70;10.80;;;;;;;14.94;64.02;102222.91;5082755;28;20869;-81
2022/05/07 06:03:36;;;;;;;;;;;;;;;14.93;64.50;102209.69;5052988;28;20032;-82
2022/05/07 06:06:02;;;;;;;19.48;10.27;;;;;;;14.93;64.76;102218.47;5050666;28;19920;-82
2022/05/07 06:08:28;;;;;;;18.92;10.45;;;;;;;14.95;64.80;102208.94;5056628;28;20044;-81
2022/05/07 06:10:55;;;;;;;25.60;10.52;;;;;;;14.85;64.83;102188.16;5054915;28;20494;-83
2022/05/07 06:13:21;;;;;;;24.00;10.82;;;;;;;14.97;65.05;102209.03;5073688;28;21630;-83
2022/05/07 06:15:51;;;;;;;25.88;11.35;;;;;;;14.87;64.93;102197.06;5067420;28;20027;-83
2022/05/07 06:18:20;;;;;;;19.52;10.52;;;;;;;14.95;65.08;102208.94;5071422;28;20410;-82
2022/05/07 06:20:48;;;;;;;19.50;10.75;;;;;;;14.89;65.17;102198.06;5053928;28;20387;-83
2022/05/07 06:23:17;;;;;;;19.58;10.23;;;;;;;14.93;65.38;102202.69;5071259;28;20031;-83
2022/05/07 06:28:27;;;;;;;20.52;10.73;;;;;;;14.81;65.62;102186.16;5057070;28;20047;-83
2022/05/07 06:30:53;;;;;;;21.35;9.98;;;;;;;14.94;65.64;102204.47;5091105;28;20485;-83
2022/05/07 06:33:20;;;;;;;16.70;10.30;;;;;;;14.92;65.80;102205.22;5089610;28;20036;-83
2022/05/07 06:35:47;;;;;;;21.58;10.73;;;;;;;14.87;66.09;102210.22;5090018;28;20039;-83
2022/05/07 06:38:12;;;;;;;;;;;;;;;14.96;65.97;102212.47;5090283;28;20027;-83
2022/05/07 06:40:38;;;;;;;18.25;10.13;;;;;;;14.88;66.26;102198.88;5073019;28;20006;-83
2022/05/07 06:43:07;;;;;;;20.20;10.60;;;;;;;14.91;66.29;102213.94;5072902;28;20028;-83
2022/05/07 06:45:33;;;;;;;17.50;10.00;;;;;;;14.91;66.24;102225.34;5073055;28;20493;-83
2022/05/07 06:47:59;;;;;;;19.42;10.30;;;;;;;14.97;66.38;102230.09;5070679;28;20115;-84
2022/05/07 06:50:25;;;;;;;17.38;9.82;;;;;;;14.97;66.72;102225.72;5069710;28;20060;-84
2022/05/07 06:52:51;;;;;;;19.73;10.05;;;;;;;14.81;66.40;102200.22;5069210;28;20482;-83
2022/05/07 06:55:18;;;;;;;15.30;10.05;;;;;;;14.85;66.59;102206.59;5068579;28;20051;-83
2022/05/07 06:57:45;;;;;;;18.85;10.07;;;;;;;14.80;66.41;102194.91;5057903;28;20072;-83
2022/05/07 07:00:13;;;;;;;17.48;10.68;;;;;;;14.89;66.74;102212.94;5051897;28;20043;-85
2022/05/07 07:02:39;;;;;;;16.05;9.93;;;;;;;14.75;66.80;102185.81;5067077;28;20359;-84
2022/05/07 07:05:06;;;;;;;17.60;9.77;;;;;;;14.62;67.00;102168.38;5069841;28;20013;-84
2022/05/07 07:07:32;;;;;;;18.45;10.32;;;;;;;14.66;67.02;102171.28;5070691;28;20029;-85
2022/05/07 07:09:57;;;;;;;18.75;10.23;;;;;;;14.80;67.00;102200.16;5073978;28;20082;-84
2022/05/07 07:12:23;;;;;;;16.75;9.98;;;;;;;14.87;66.89;102212.84;5083655;28;20465;-85
2022/05/07 07:14:49;;;;;;;15.80;10.25;;;;;;;15.00;66.85;102228.53;5069671;28;20028;-84
2022/05/07 07:17:25;;;;;;;15.50;9.90;;;;;;;14.94;67.13;102230.78;5069305;28;20419;-84
2022/05/07 07:19:51;;;;;;;16.67;10.13;;;;;;;14.70;67.13;102193.44;5070440;28;20021;-85
2022/05/07 07:22:17;;;;;;;16.25;10.23;;;;;;;14.83;67.32;102218.72;5070179;28;20097;-84
2022/05/07 07:24:42;;;;;;;17.27;9.82;;;;;;;14.83;67.18;102216.09;5069206;28;20028;-86
2022/05/07 07:27:11;;;;;;;16.67;9.85;;;;;;;14.92;67.24;102236.78;5069132;28;20031;-85
2022/05/07 07:29:44;;;;;;;17.20;9.73;;;;;;;14.67;67.26;102206.41;5069166;28;20028;-84
2022/05/07 07:32:17;;;;;;;13.75;9.85;;;;;;;14.83;67.39;102227.53;5073840;28;20028;-85
2022/05/07 07:34:43;;;;;;;16.60;9.50;;;;;;;14.70;67.40;102205.66;5080165;28;20115;-83
2022/05/07 07:37:08;;;;;;;17.02;10.15;;;;;;;14.80;67.66;102218.56;5070558;28;20118;-85
2022/05/07 07:39:34;;;;;;;17.10;10.15;;;;;;;14.92;67.38;102248.25;5072055;28;20482;-83
2022/05/07 07:42:00;;;;;;;17.48;10.30;;;;;;;14.90;67.42;102238.41;5056924;28;20032;-83
2022/05/07 07:44:27;;;;;;;15.77;9.48;;;;;;;15.02;67.45;102261.09;5072795;28;20444;-86
2022/05/07 07:49:38;;;;;;;15.70;9.60;;;;;;;15.00;67.80;102257.47;5071951;28;20039;-85
2022/05/07 07:52:05;;;;;;;18.58;9.77;;;;;;;15.02;67.52;102262.81;5073908;28;20108;-85
2022/05/07 07:54:30;;;;;;;16.50;9.98;;;;;;;15.09;66.99;102261.47;5072199;28;20025;-85
2022/05/07 07:56:58;;;;;;;19.30;10.38;;;;;;;15.13;66.77;102255.56;5071016;28;20067;-84
2022/05/07 07:59:23;;;;;;;13.90;10.07;;;;;;;15.25;66.49;102261.56;5070616;28;20033;-84
2022/05/07 08:01:49;;;;;;;16.25;9.55;;;;;;;15.24;66.23;102257.13;5071749;28;20158;-84
2022/05/07 08:04:14;;;;;;;13.32;9.23;;;;;;;15.30;66.24;102275.88;5055114;28;20613;-83
2022/05/07 08:06:40;;;;;;;13.35;8.68;;;;;;;15.30;66.51;102273.25;5052286;28;20422;-83
2022/05/07 08:11:55;;;;;;;13.40;9.30;;;;;;;15.34;66.39;102277.00;5072371;28;20620;-85
2022/05/07 08:14:21;;;;;;;16.75;9.18;;;;;;;15.20;66.31;102257.78;5073551;28;20028;-84
2022/05/07 08:16:46;;;;;;;14.50;9.00;;;;;;;15.33;66.38;102276.09;5071476;28;20328;-84
2022/05/07 08:19:12;;;;;;;14.90;9.07;;;;;;;15.30;66.36;102267.09;5073514;28;20029;-85
2022/05/07 08:21:38;;;;;;;15.48;8.75;;;;;;;15.39;66.33;102281.72;5073416;28;20028;-85
2022/05/07 08:24:04;;;;;;;15.93;9.18;;;;;;;15.41;66.19;102281.81;5072202;28;20033;-85
2022/05/07 08:26:30;;;;;;;;;;;;;;;15.44;66.07;102281.97;5072338;28;20078;-84
2022/05/07 08:28:55;;;;;;;14.68;9.25;;;;;;;15.42;66.35;102280.97;5072917;28;19920;-83
2022/05/07 08:31:24;;;;;;;14.77;9.02;;;;;;;15.33;66.35;102275.19;5072156;28;20024;-84
2022/05/07 08:33:51;;;;;;;12.35;8.75;;;;;;;15.33;66.41;102268.19;5073223;28;20037;-84
2022/05/07 08:36:17;;;;;;;14.05;8.82;;;;;;;15.31;66.13;102263.66;5072987;28;20024;-85
2022/05/07 08:38:43;;;;;;;13.40;9.02;;;;;;;15.21;66.43;102254.31;5071600;28;20043;-85
2022/05/07 08:41:10;;;;;;;12.55;8.50;;;;;;;15.04;66.34;102235.78;5071884;28;20090;-84
2022/05/07 08:43:38;;;;;;;13.90;9.68;;;;;;;15.18;66.13;102238.34;5071453;28;20048;-85
2022/05/07 08:46:14;;;;;;;13.23;8.82;;;;;;;15.33;66.64;102275.19;5054359;28;20131;-84
2022/05/07 08:48:41;;;;;;;13.52;9.20;;;;;;;15.41;66.54;102282.72;5071018;28;20383;-84
2022/05/07 08:51:07;;;;;;;14.63;8.93;;;;;;;15.19;66.49;102240.16;5069537;28;20474;-84
2022/05/07 08:53:33;;;;;;;12.90;8.80;;;;;;;15.38;66.74;102266.72;5081592;28;20244;-84
2022/05/07 08:55:59;;;;;;;15.00;8.60;;;;;;;15.39;66.47;102273.81;5071734;28;20066;-84
2022/05/07 08:58:25;;;;;;;13.00;8.52;;;;;;;15.41;66.63;102269.56;5072602;28;20064;-83
2022/05/07 09:00:51;;;;;;;13.40;8.50;;;;;;;15.40;66.53;102256.28;5072686;28;20032;-84
2022/05/07 09:03:17;;;;;;;13.88;8.73;;;;;;;15.48;66.50;102283.97;5071956;28;20079;-83
2022/05/07 09:05:43;;;;;;;13.50;8.90;;;;;;;15.52;66.47;102288.59;5070005;28;20127;-84
2022/05/07 09:08:10;;;;;;;13.23;8.18;;;;;;;15.52;66.54;102282.44;5070633;28;20099;-84
2022/05/07 09:10:37;;;;;;;13.57;8.27;;;;;;;15.54;66.67;102280.81;5070452;28;20126;-83
2022/05/07 09:13:10;;;;;;;11.90;8.25;;;;;;;15.54;66.29;102278.16;5069072;28;20036;-83
2022/05/07 09:15:57;;;;;;;11.20;8.40;;;;;;;15.51;66.68;102268.34;5078384;28;20088;-83
2022/05/07 09:18:23;;;;;;;;;;;;;;;15.53;66.47;102263.16;5072921;28;20071;-83
2022/05/07 09:21:23;;;;;;;10.45;7.55;;;;;;;15.55;66.58;102265.06;5061771;28;19996;-83
2022/05/07 09:23:58;;;;;;;13.45;8.13;;;;;;;15.52;66.75;102257.00;5051242;28;20028;-83
2022/05/07 09:26:30;;;;;;;11.30;7.85;;;;;;;15.54;66.86;102260.63;5072246;28;20025;-83
2022/05/07 09:28:56;;;;;;;12.43;7.72;;;;;;;15.55;66.81;102254.53;5072236;28;20095;-84
2022/05/07 09:31:30;;;;;;;10.95;7.80;;;;;;;15.46;66.84;102236.50;5070963;28;20075;-84
2022/05/07 09:35:47;;;;;;;10.90;7.35;;;;;;;15.57;66.88;102242.38;5050570;28;20068;-84
2022/05/07 09:36:43;;;;;;;13.45;7.72;;;;;;;15.47;67.04;102232.13;5050789;28;20028;-83
2022/05/07 09:39:14;;;;;;;12.95;7.72;;;;;;;15.60;67.11;102246.88;5050799;28;20029;-83
2022/05/07 09:41:43;;;;;;;11.23;7.63;;;;;;;15.45;67.39;102224.16;5067230;28;20052;-84
2022/05/07 09:44:10;;;;;;;11.55;7.32;;;;;;;15.62;67.15;102255.78;5050462;28;20029;-84
2022/05/07 09:46:35;;;;;;;11.77;7.40;;;;;;;15.59;67.49;102245.09;5067242;28;20037;-85
2022/05/07 09:49:03;;;;;;;11.07;7.70;;;;;;;15.38;67.16;102216.72;5050567;28;20123;-85
2022/05/07 09:51:30;;;;;;;12.43;7.80;;;;;;;15.63;67.20;102250.63;5050638;28;20086;-84
2022/05/07 09:59:25;;;;;;;8.93;6.85;;;;;;;15.60;67.24;102239.94;5056522;28;20516;-84
2022/05/07 10:02:30;;;;;;;12.40;7.32;;;;;;;15.66;67.31;102245.53;5068443;28;20025;-85
2022/05/07 10:05:14;;;;;;;10.80;7.18;;;;;;;15.67;67.38;102241.19;5004215;28;20036;-85
2022/05/07 10:07:58;;;;;;;10.45;7.00;;;;;;;15.63;67.39;102244.44;5069466;28;20485;-84
2022/05/07 10:10:27;;;;;;;9.63;6.70;;;;;;;15.68;67.36;102242.97;5070331;28;20043;-84
2022/05/07 10:13:00;;;;;;;9.95;6.82;;;;;;;15.71;67.22;102240.53;5068772;28;20332;-85
2022/05/07 10:15:26;;;;;;;9.82;6.53;;;;;;;15.68;67.53;102235.06;5069476;28;20025;-84
2022/05/07 10:18:03;;;;;;;9.27;6.30;;;;;;;15.63;67.32;102226.91;5070421;28;20031;-84
2022/05/07 10:20:48;;;;;;;10.85;6.80;;;;;;;15.73;67.17;102233.66;5063288;28;20033;-85
2022/05/07 10:23:26;;;;;;;10.52;6.25;;;;;;;15.70;67.48;102233.44;5051520;28;20028;-85
2022/05/07 10:25:57;;;;;;;9.50;6.20;;;;;;;15.65;67.81;102234.91;5070936;28;20428;-85
2022/05/07 10:28:27;;;;;;;10.25;6.57;;;;;;;15.57;67.67;102209.88;5049294;28;20533;-84
2022/05/07 10:30:56;;;;;;;10.00;6.70;;;;;;;15.65;67.56;102221.75;5053400;28;20100;-82
2022/05/07 10:33:22;;;;;;;8.57;6.10;;;;;;;15.64;67.69;102227.81;5085838;28;20110;-85
2022/05/07 10:35:55;;;;;;;10.25;6.40;;;;;;;15.69;67.38;102226.38;5078311;28;20078;-83
2022/05/07 10:38:27;;;;;;;11.88;6.65;;;;;;;15.73;67.67;102224.84;5069206;28;20028;-83
2022/05/07 10:41:09;;;;;;;9.57;6.10;;;;;;;15.66;67.43;102213.94;5068450;28;20021;-87
2022/05/07 10:43:43;;;;;;;8.52;6.13;;;;;;;15.77;67.47;102225.09;5069405;28;20020;-85
2022/05/07 10:46:16;;;;;;;8.50;6.20;;;;;;;15.78;67.63;102220.75;5069310;28;20060;-85
2022/05/07 10:48:53;;;;;;;11.68;5.93;;;;;;;15.79;66.68;102214.63;5052362;28;20039;-84
2022/05/07 10:51:51;;;;;;;9.20;5.93;;;;;;;15.67;66.34;102194.66;5070227;28;20107;-84
2022/05/07 10:54:22;;;;;;;8.50;6.00;;;;;;;15.73;66.77;102198.53;5014998;28;20074;-84
2022/05/07 10:56:51;;;;;;;9.05;5.53;;;;;;;15.79;67.05;102212.00;5070843;28;20094;-84
2022/05/07 10:59:17;;;;;;;8.93;5.63;;;;;;;15.67;67.40;102191.13;5070476;28;20119;-84
2022/05/07 11:01:43;;;;;;;8.50;5.85;;;;;;;15.79;67.25;102202.41;5069239;28;20029;-85
2022/05/07 11:04:12;;;;;;;7.80;5.43;;;;;;;15.84;67.18;102211.44;5069301;28;20036;-84
2022/05/07 11:06:43;;;;;;;8.43;5.75;;;;;;;15.82;67.24;102212.19;5069474;28;20028;-84
2022/05/07 11:09:16;;;;;;;11.25;6.03;;;;;;;15.82;67.57;102210.47;5070745;28;20025;-84
2022/05/07 11:11:46;;;;;;;7.40;5.68;;;;;;;15.77;67.26;102195.22;5069507;28;20033;-84
2022/05/07 11:14:24;;;;;;;9.02;5.35;;;;;;;15.86;67.23;102201.91;5073581;28;20115;-83
2022/05/07 11:16:55;;;;;;;8.15;5.55;;;;;;;15.85;67.54;102201.81;5073513;28;20025;-83
2022/05/07 11:19:34;;;;;;;6.78;5.07;;;;;;;15.88;67.50;102204.63;5073703;28;20102;-83
2022/05/07 11:22:04;;;;;;;10.55;5.57;;;;;;;15.88;67.32;102202.91;5077710;28;20016;-83
2022/05/07 11:24:31;;;;;;;9.98;5.20;;;;;;;15.59;67.62;102151.19;5072599;28;20032;-84
2022/05/07 11:27:00;;;;;;;8.20;5.25;;;;;;;15.94;67.45;102204.03;5055734;28;20402;-84
2022/05/07 11:29:27;;;;;;;7.32;5.30;;;;;;;15.81;67.81;102184.03;5072471;28;20103;-83
2022/05/07 11:32:07;;;;;;;11.40;5.45;;;;;;;15.81;67.46;102177.06;5071348;28;20478;-84
2022/05/07 11:34:42;;;;;;;8.07;4.72;;;;;;;15.91;67.95;102199.53;5072670;28;20424;-84
2022/05/07 11:37:11;;;;;;;9.00;5.10;;;;;;;15.70;68.08;102167.59;5088747;28;20024;-83
2022/05/07 11:39:56;;;;;;;9.65;5.40;;;;;;;15.71;67.77;102165.88;5072016;28;20028;-83
2022/05/07 11:42:32;;;;;;;8.45;4.85;;;;;;;15.96;67.96;102213.88;5073730;28;20032;-83
2022/05/07 11:47:55;;;;;;;9.27;5.10;;;;;;;15.99;67.91;102210.50;5073256;28;20054;-83
2022/05/07 11:50:30;;;;;;;8.90;5.10;;;;;;;16.01;67.79;102208.84;5073037;28;20425;-83
2022/05/07 11:52:56;;;;;;;12.00;5.57;;;;;;;15.94;67.39;102191.81;5072865;28;20021;-83
2022/05/07 11:55:29;;;;;;;8.15;5.00;;;;;;;16.00;67.07;102197.41;5072250;28;20046;-84